Youngstown, OH

10:05 PM EDT on August 30, 2014 (GMT -0400)
Youngstown-Warren Regional | Change Station
CLOSE
Current Station
Airport
Location: Youngstown,
Elevation: 1184 ft
Nearby Weather Stations

Elev 1184 ft 41.25 °N, 80.67 °W | Updated 14 minutes ago

Mostly Cloudy
Mostly Cloudy
79 °F
Feels Like 79 °F
N
6
Wind Variable Wind from South

Today
High -- | Low -- °F
--% Chance of Precip.
Yesterday
High -- | Low -- °F
Precip. -- in
6:47 AM 7:58 PM
Waxing Crescent, 26% visible
Pressure 30.00 in
Visibility 10.0 miles
Clouds Mostly Cloudy 8000 ft
Dew Point 66 °F
Humidity 64%
Rainfall 0.00 in
Snow Depth Not available.
UV 0 out of 12
Pollen 10.60 out of 12
Ozone Good
PM2.5 Moderate
Flu Activity Not available.
METAR KYNG 310151Z 17005KT 10SM BKN080 26/19 A3003 RMK AO2 SLP159 T02610189 $

More Conditions Fewer Conditions

Pressure 30.00 in
Visibility 10.0 miles
Clouds Mostly Cloudy 8000 ft
Dew Point 66 °F
Humidity 64%
Rainfall 0.00 in
Snow Depth Not available.
UV 0 out of 12
Pollen 10.60 out of 12
Ozone Good
PM2.5 Moderate
Flu Activity Not available.
METAR KYNG 310151Z 17005KT 10SM BKN080 26/19 A3003 RMK AO2 SLP159 T02610189 $

More Conditions Fewer Conditions

10-Day Weather Forecast

Almanac

Astronomy

Aug. 30, 2014 Rise Set
Actual Time 6:47 AM EDT 7:58 PM EDT
Civil Twilight 6:18 AM EDT 8:26 PM EDT
Nautical Twilight 5:44 AM EDT 9:00 PM EDT
Astronomical Twilight 5:09 AM EDT 9:36 PM EDT
Moon 11:36 AM EDT (8/30) 10:28 PM EDT (8/30)
Length of Visible Light 14h 08m
Length of Day
13h 11m
Tomorrow will be 2m 37s shorter.
Waxing Crescent, 26% of the Moon is Illuminated
Today
Waxing Crescent
Sep 2
First Quarter
Sep 8
Full
Sep 15
Last Quarter
Sep 24
New

Today's Extremes

State Highs State Lows

Community

WunderPhotos

Upload Photos

1,748,725 photos uploaded!

Nearby

Air Quality

  Air Quality AQ Index Pollutant
Yesterday Good
PM2.5
Yesterday Good
OZONE
Current Moderate
PM2.5
Current Good
OZONE
Saturday Moderate
OZONE
Saturday Moderate
PM2.5
Sunday Good
PM2.5
Sunday Good
OZONE
Monday Moderate
OZONE
Monday Moderate
PM2.5
Tuesday Good
OZONE
Tuesday Good
PM2.5
Wednesday Moderate
PM2.5
Wednesday Moderate
OZONE
Thursday Moderate
OZONE
Thursday Moderate
PM2.5

Snow Depth

Station Depth Elevation
No new snow has been reported.

Earthquake Activity

City Distance Mag. Time & Date
No recent earthquake activity has been reported nearby.
Minimum magnitude displayed is 2.5.

Coastal Water Temperatures

Place Temperature
No Stations Reporting

Nearby Weather Stations